Huntington, West Virginia
Current Conditions -  °F | °C
As of 8:51 AM on Thursday 30 Oct 2014 (Local Time) from KHTS Reporting Station
Haze Haze  
Wind Chill: 39°   Ceiling: 4400
Heat Index: 39°   Visibility: 6mi
Dew Point: 38°   Wind: 0mph
Humidity: 96%   Direction: NA
Pressure: 30.16"   Gusts: NA
Location:  38.42°N, 82.44°W
Report Text: KHTS 301251Z 00000KT 6SM BR OVC044 04/03 A3016 RMK AO2 SLP213 T00390033
Loading
Personal Weather Stations






























Interactive Weather Map
Tropical Storm Tracking
New forecast layout! Learn more

10-Day Weather Forecast

Advertisements
Track Severe Weather on mobile